Terminal Aerodrome Forecast
Issued by NWS

Home | Current Version | Previous Version | Text Only | Print | Product List | Glossary On
Versions: 1 2 3 4 5 6 7 8 9 10 11 12 13 14 15 16 17 18 19 20 21 22 23 24 25 26
000
FTUS43 KDDC 230542
TAFHYS
TAF
KHYS 230542Z 2306/2406 31011KT P6SM SCT070 BKN200
     FM230900 30013KT P6SM BKN040
     FM231600 33022G32KT P6SM -SN OVC025
     FM231900 35025G35KT 4SM -SN BR OVC012
     FM232300 34018G28KT P6SM -SN OVC030=

USA.gov is the U.S. government's official web portal to all federal, state and local government web resources and services.